createdAt,value
2022-11-18T00:01:32.667Z,36.11
2022-11-18T00:04:01.940Z,36.28
2022-11-18T00:06:31.164Z,36.08
2022-11-18T00:09:00.328Z,36.31
2022-11-18T00:11:46.499Z,36.02
2022-11-18T00:14:20.927Z,36.14
2022-11-18T00:16:52.264Z,36.39
2022-11-18T00:19:21.800Z,36.07
2022-11-18T00:21:50.428Z,36.22
2022-11-18T00:24:19.248Z,36.00
2022-11-18T00:26:47.714Z,35.90
2022-11-18T00:29:18.066Z,36.24
2022-11-18T00:31:46.737Z,35.93
2022-11-18T00:34:16.596Z,35.96
2022-11-18T00:36:45.461Z,35.79
2022-11-18T00:39:15.570Z,35.74
2022-11-18T00:42:01.806Z,35.73
2022-11-18T00:44:31.722Z,35.94
2022-11-18T00:47:00.143Z,35.81
2022-11-18T00:49:28.543Z,35.78
2022-11-18T00:51:57.006Z,36.01
2022-11-18T00:54:25.433Z,35.81
2022-11-18T00:56:53.917Z,35.66
2022-11-18T00:59:22.418Z,35.74
2022-11-18T01:01:52.240Z,35.61
2022-11-18T01:04:20.894Z,35.75
2022-11-18T01:06:49.370Z,35.64
2022-11-18T01:09:20.570Z,35.65
2022-11-18T01:12:06.826Z,35.62
2022-11-18T01:14:35.274Z,35.70
2022-11-18T01:17:05.279Z,35.77
2022-11-18T01:19:33.720Z,35.74
2022-11-18T01:22:03.454Z,35.66
2022-11-18T01:24:33.049Z,35.57
2022-11-18T01:27:01.934Z,35.61
2022-11-18T01:29:30.405Z,35.74
2022-11-18T01:32:23.560Z,35.77
2022-11-18T01:34:48.776Z,35.64
2022-11-18T01:37:17.265Z,35.49
2022-11-18T01:39:45.703Z,35.67
2022-11-18T01:42:16.233Z,35.68
2022-11-18T01:45:05.149Z,36.01
2022-11-18T01:47:36.650Z,35.76
2022-11-18T01:50:07.800Z,35.54
2022-11-18T01:52:36.272Z,35.68
2022-11-18T01:55:09.249Z,35.58
2022-11-18T01:57:37.781Z,35.58
2022-11-18T02:00:07.992Z,35.72
2022-11-18T02:02:37.778Z,35.67
2022-11-18T02:05:09.641Z,35.58
2022-11-18T02:07:40.235Z,35.72
2022-11-18T02:10:09.626Z,35.61
2022-11-18T02:12:38.146Z,35.59
2022-11-18T02:15:08.186Z,35.54
2022-11-18T02:17:46.134Z,35.59
2022-11-18T02:20:25.774Z,35.91
2022-11-18T02:23:58.926Z,36.14
2022-11-18T02:27:22.284Z,36.33
2022-11-18T02:29:54.728Z,35.80
2022-11-18T02:32:26.284Z,35.80
2022-11-18T02:34:58.815Z,35.54
2022-11-18T02:37:32.488Z,35.61
2022-11-18T02:40:03.642Z,35.72
2022-11-18T02:42:32.543Z,35.78
2022-11-18T02:45:05.004Z,35.65
2022-11-18T02:47:33.494Z,35.59
2022-11-18T02:50:05.289Z,35.50
2022-11-18T02:52:33.914Z,35.42
2022-11-18T02:55:02.516Z,35.58
2022-11-18T02:57:31.041Z,35.61
2022-11-18T02:59:59.867Z,35.48
2022-11-18T03:02:30.036Z,35.31
2022-11-18T03:04:58.592Z,35.51
2022-11-18T03:07:29.153Z,35.32
2022-11-18T03:09:57.751Z,35.60
2022-11-18T03:12:32.243Z,35.31
2022-11-18T03:15:08.045Z,35.39
2022-11-18T03:17:47.006Z,35.84
2022-11-18T03:20:21.424Z,35.58
2022-11-18T03:22:53.396Z,35.49
2022-11-18T03:25:23.840Z,35.54
2022-11-18T03:27:56.878Z,35.50
2022-11-18T03:30:25.574Z,35.47
2022-11-18T03:33:00.133Z,35.25
2022-11-18T03:35:30.761Z,35.47
2022-11-18T03:38:03.831Z,35.51
2022-11-18T03:40:32.968Z,35.17
2022-11-18T03:43:05.420Z,35.51
2022-11-18T03:45:36.565Z,35.44
2022-11-18T03:48:09.841Z,35.43
2022-11-18T03:50:41.995Z,35.46
2022-11-18T03:53:10.440Z,35.52
2022-11-18T03:55:41.947Z,35.31
2022-11-18T03:58:14.023Z,35.54
2022-11-18T04:00:44.402Z,35.32
2022-11-18T04:03:14.275Z,35.43
2022-11-18T04:05:44.078Z,35.25
2022-11-18T04:08:15.154Z,35.45
2022-11-18T04:10:47.495Z,35.27
2022-11-18T04:13:19.673Z,35.42
2022-11-18T04:15:48.163Z,35.21
2022-11-18T04:18:18.076Z,35.42
2022-11-18T04:20:46.544Z,35.24
2022-11-18T04:23:16.176Z,35.39
2022-11-18T04:25:44.634Z,35.26
2022-11-18T04:28:13.081Z,35.49
2022-11-18T04:30:41.493Z,35.30
2022-11-18T04:33:10.340Z,35.52
2022-11-18T04:35:40.161Z,35.48
2022-11-18T04:38:08.564Z,35.35
2022-11-18T04:40:37.025Z,35.27
2022-11-18T04:43:05.424Z,35.30
2022-11-18T04:45:33.897Z,35.27
2022-11-18T04:48:03.939Z,35.06
2022-11-18T04:50:32.486Z,35.38
2022-11-18T04:53:02.320Z,35.37
2022-11-18T04:55:30.741Z,35.39
2022-11-18T04:57:59.169Z,35.35
2022-11-18T05:00:27.582Z,35.44
2022-11-18T05:02:56.055Z,35.46
2022-11-18T05:05:24.536Z,35.28
2022-11-18T05:07:53.133Z,35.43
2022-11-18T05:10:22.883Z,35.24
2022-11-18T05:12:50.325Z,35.45
2022-11-18T05:15:19.213Z,35.42
2022-11-18T05:17:47.855Z,35.34
2022-11-18T05:20:17.288Z,35.56
2022-11-18T05:22:45.820Z,35.55
2022-11-18T05:25:14.301Z,35.53
2022-11-18T05:27:44.132Z,35.45
2022-11-18T05:30:14.725Z,35.33
2022-11-18T05:32:43.161Z,35.51
2022-11-18T05:35:11.595Z,35.57
2022-11-18T05:37:40.015Z,35.62
2022-11-18T05:40:10.792Z,35.51
2022-11-18T05:42:56.770Z,35.37
2022-11-18T05:45:26.647Z,35.30
2022-11-18T05:48:00.871Z,35.37
2022-11-18T05:50:29.312Z,35.42
2022-11-18T05:52:57.825Z,35.58
2022-11-18T05:55:28.762Z,35.70
2022-11-18T05:57:57.398Z,35.58
2022-11-18T06:00:27.270Z,35.63
2022-11-18T06:02:55.804Z,35.85
2022-11-18T06:05:24.322Z,35.48
2022-11-18T06:07:52.785Z,35.67
2022-11-18T06:10:24.082Z,35.56
2022-11-18T06:12:53.929Z,35.32
2022-11-18T06:15:24.073Z,35.96
2022-11-18T06:17:55.989Z,36.25
2022-11-18T06:20:24.561Z,36.53
2022-11-18T06:22:54.847Z,36.68
2022-11-18T06:25:23.631Z,37.22
2022-11-18T06:27:52.504Z,37.24
2022-11-18T06:30:21.277Z,36.82
2022-11-18T06:32:49.858Z,36.47
2022-11-18T06:35:19.696Z,36.74
2022-11-18T06:37:48.411Z,36.64
2022-11-18T06:40:17.786Z,36.74
2022-11-18T06:43:04.041Z,37.03
2022-11-18T06:45:35.118Z,37.03
2022-11-18T06:48:02.714Z,37.09
2022-11-18T06:50:32.700Z,37.50
2022-11-18T06:53:02.035Z,36.70
2022-11-18T06:55:30.592Z,37.18
2022-11-18T06:57:59.191Z,36.32
2022-11-18T07:00:27.660Z,37.06
2022-11-18T07:02:56.142Z,36.15
2022-11-18T07:05:24.647Z,36.32
2022-11-18T07:07:54.648Z,35.79
2022-11-18T07:10:23.086Z,36.47
2022-11-18T07:12:51.574Z,36.71
2022-11-18T07:15:20.079Z,36.55
2022-11-18T07:17:48.597Z,36.73
2022-11-18T07:20:17.572Z,36.25
2022-11-18T07:22:46.164Z,36.34
2022-11-18T07:25:16.164Z,35.99
2022-11-18T07:27:44.656Z,35.97
2022-11-18T07:30:14.800Z,36.06
2022-11-18T07:32:43.391Z,36.15
2022-11-18T07:35:11.822Z,36.05
2022-11-18T07:37:40.451Z,36.19
2022-11-18T07:40:11.489Z,36.37
2022-11-18T07:42:43.636Z,35.75
2022-11-18T07:45:12.751Z,36.01
2022-11-18T07:47:41.253Z,36.35
2022-11-18T07:50:10.287Z,36.13
2022-11-18T07:52:38.772Z,35.97
2022-11-18T07:55:08.074Z,36.03
2022-11-18T07:57:36.691Z,36.26
2022-11-18T08:00:08.938Z,36.65
2022-11-18T08:02:37.367Z,36.27
2022-11-18T08:05:06.927Z,36.05
2022-11-18T08:07:35.495Z,36.41
2022-11-18T08:10:04.127Z,36.13
2022-11-18T08:12:32.665Z,36.45
2022-11-18T08:15:01.279Z,36.37
2022-11-18T08:17:31.156Z,36.76
2022-11-18T08:19:59.758Z,36.34
2022-11-18T08:22:28.492Z,36.93
2022-11-18T08:24:57.046Z,36.67
2022-11-18T08:27:25.559Z,36.85
2022-11-18T08:29:55.066Z,37.11
2022-11-18T08:32:24.156Z,37.19
2022-11-18T08:34:53.979Z,36.89
2022-11-18T08:37:22.473Z,37.09
2022-11-18T08:39:50.940Z,37.26
2022-11-18T08:42:24.429Z,36.82
2022-11-18T08:44:53.590Z,37.16
2022-11-18T08:47:23.416Z,37.10
2022-11-18T08:49:53.565Z,36.89
2022-11-18T08:52:22.091Z,37.27
2022-11-18T08:54:50.670Z,37.25
2022-11-18T08:57:19.564Z,37.30
2022-11-18T08:59:48.347Z,37.25
2022-11-18T09:02:17.517Z,37.55
2022-11-18T09:04:47.845Z,37.36
2022-11-18T09:07:17.854Z,37.02
2022-11-18T09:09:46.489Z,36.84
2022-11-18T09:12:17.546Z,37.69
2022-11-18T09:15:13.061Z,37.17
2022-11-18T09:17:35.914Z,37.33
2022-11-18T09:20:04.745Z,36.95
2022-11-18T09:22:37.649Z,36.68
2022-11-18T09:25:07.264Z,36.69
2022-11-18T09:27:36.552Z,37.85
2022-11-18T09:30:06.255Z,45.98
2022-11-18T09:32:34.739Z,43.31
2022-11-18T09:35:03.280Z,41.82
2022-11-18T09:37:31.717Z,40.83
2022-11-18T09:40:01.611Z,39.68
2022-11-18T09:42:43.306Z,39.07
2022-11-18T09:45:23.896Z,38.98
2022-11-18T09:47:53.079Z,38.27
2022-11-18T09:53:19.018Z,38.14
2022-11-18T09:55:48.916Z,38.01
2022-11-18T09:58:21.600Z,38.26
2022-11-18T10:00:50.120Z,37.80
2022-11-18T10:03:24.818Z,39.06
2022-11-18T10:05:57.812Z,39.61
2022-11-18T10:08:28.347Z,39.10
2022-11-18T10:11:02.050Z,38.40
2022-11-18T10:13:41.701Z,39.23
2022-11-18T10:16:24.374Z,38.77
2022-11-18T10:19:01.174Z,38.87
2022-11-18T10:21:52.569Z,39.29
2022-11-18T10:24:22.316Z,39.47
2022-11-18T10:26:56.523Z,39.72
2022-11-18T10:29:25.112Z,39.63
2022-11-18T10:31:59.724Z,40.95
2022-11-18T10:34:32.839Z,40.51
2022-11-18T10:37:02.975Z,40.03
2022-11-18T10:39:31.553Z,40.42
2022-11-18T10:42:05.024Z,39.67
2022-11-18T10:44:38.732Z,39.38
2022-11-18T10:47:26.847Z,40.08
2022-11-18T10:49:56.438Z,39.91
2022-11-18T10:52:24.974Z,39.27
2022-11-18T10:55:20.192Z,39.59
2022-11-18T10:57:53.877Z,39.37
2022-11-18T11:00:50.129Z,39.02
2022-11-18T11:03:33.358Z,39.05
2022-11-18T11:06:42.250Z,38.28
2022-11-18T11:09:26.544Z,39.42
2022-11-18T11:12:01.404Z,38.94
2022-11-18T11:14:34.080Z,39.00
2022-11-18T11:17:08.121Z,39.03
2022-11-18T11:19:52.140Z,38.66
2022-11-18T11:22:21.065Z,38.79
2022-11-18T11:24:49.773Z,38.67
2022-11-18T11:30:29.124Z,38.54
2022-11-18T11:33:21.555Z,38.73
2022-11-18T11:35:58.550Z,38.40
2022-11-18T11:38:36.889Z,38.34
2022-11-18T11:41:11.380Z,38.29
2022-11-18T11:43:52.180Z,38.39
2022-11-18T11:46:29.387Z,38.08
2022-11-18T11:49:00.482Z,37.90
2022-11-18T11:51:34.361Z,37.42
2022-11-18T11:54:16.540Z,37.81
2022-11-18T11:56:48.747Z,37.82
2022-11-18T11:59:28.790Z,37.88
2022-11-18T12:02:40.582Z,37.99
2022-11-18T12:05:18.892Z,38.21
2022-11-18T12:08:03.285Z,37.92
2022-11-18T12:10:39.429Z,37.86
2022-11-18T12:13:21.408Z,37.68
2022-11-18T12:15:58.133Z,37.93
2022-11-18T12:18:33.120Z,37.55
2022-11-18T12:21:01.661Z,37.70
2022-11-18T12:23:30.760Z,37.53
2022-11-18T12:26:10.095Z,37.41
2022-11-18T12:28:41.316Z,37.44
2022-11-18T12:31:43.235Z,37.68
2022-11-18T12:34:31.190Z,37.65
2022-11-18T12:36:59.662Z,37.45
2022-11-18T12:39:49.449Z,37.38
2022-11-18T12:42:55.792Z,37.37
2022-11-18T12:45:58.785Z,37.31
2022-11-18T12:48:41.050Z,37.26
2022-11-18T12:51:46.388Z,37.42
2022-11-18T12:54:29.908Z,37.24
2022-11-18T12:57:01.473Z,36.94
2022-11-18T12:59:34.992Z,37.18
2022-11-18T13:02:21.239Z,37.31
2022-11-18T13:05:05.929Z,37.25
2022-11-18T13:07:59.836Z,37.57
2022-11-18T13:10:30.378Z,37.47
2022-11-18T13:12:58.900Z,37.38
2022-11-18T13:15:45.406Z,37.32
2022-11-18T13:18:16.547Z,37.18
2022-11-18T13:20:45.697Z,37.01
2022-11-18T13:23:59.295Z,37.19
2022-11-18T13:26:32.971Z,37.05
2022-11-18T13:29:36.818Z,37.09
2022-11-18T13:32:16.966Z,36.84
2022-11-18T13:34:48.339Z,36.72
2022-11-18T13:37:20.388Z,36.51
2022-11-18T13:39:50.399Z,36.79
2022-11-18T13:42:21.446Z,36.70
2022-11-18T13:44:54.824Z,36.96
2022-11-18T13:47:30.109Z,37.37
2022-11-18T13:50:06.547Z,36.90
2022-11-18T13:52:39.031Z,36.87
2022-11-18T13:55:19.772Z,36.92
2022-11-18T13:57:50.055Z,37.01
2022-11-18T14:00:23.843Z,36.88
2022-11-18T14:02:57.850Z,36.87
2022-11-18T14:05:27.797Z,36.87
2022-11-18T14:08:00.128Z,36.71
2022-11-18T14:10:39.219Z,36.87
2022-11-18T14:13:21.446Z,37.38
2022-11-18T14:15:49.991Z,37.83
2022-11-18T14:18:32.077Z,37.52
2022-11-18T14:21:01.441Z,37.52
2022-11-18T14:23:33.335Z,38.48
2022-11-18T14:26:04.685Z,38.48
2022-11-18T14:28:34.574Z,38.54
2022-11-18T14:31:25.247Z,38.87
2022-11-18T14:34:18.290Z,38.76
2022-11-18T14:36:46.806Z,38.91
2022-11-18T14:39:27.071Z,38.36
2022-11-18T14:41:57.966Z,38.35
2022-11-18T14:44:27.653Z,39.03
2022-11-18T14:46:59.107Z,39.16
2022-11-18T14:49:30.100Z,39.33
2022-11-18T14:51:58.745Z,39.49
2022-11-18T14:54:28.183Z,39.85
2022-11-18T14:57:01.235Z,39.59
2022-11-18T14:59:29.774Z,39.25
2022-11-18T15:01:58.796Z,39.08
2022-11-18T15:04:27.467Z,39.42
2022-11-18T15:06:56.313Z,39.72
2022-11-18T15:09:24.819Z,39.34
2022-11-18T15:11:53.685Z,39.37
2022-11-18T15:14:23.584Z,39.38
2022-11-18T15:16:52.052Z,39.31
2022-11-18T15:19:20.676Z,39.30
2022-11-18T15:21:49.151Z,39.57
2022-11-18T15:24:17.944Z,39.15
2022-11-18T15:26:47.692Z,39.08
2022-11-18T15:29:19.798Z,39.28
2022-11-18T15:31:49.720Z,39.72
2022-11-18T15:34:20.439Z,39.37
2022-11-18T15:36:49.435Z,39.31
2022-11-18T15:39:18.156Z,39.19
2022-11-18T15:41:46.731Z,39.44
2022-11-18T15:44:16.146Z,39.11
2022-11-18T15:46:47.928Z,39.10
2022-11-18T15:49:18.757Z,38.86
2022-11-18T15:51:47.266Z,39.10
2022-11-18T15:54:16.975Z,39.02
2022-11-18T15:56:45.837Z,38.69
2022-11-18T15:59:15.124Z,39.04
2022-11-18T16:01:44.693Z,38.71
2022-11-18T16:04:14.386Z,38.53
2022-11-18T16:06:44.538Z,38.58
2022-11-18T16:09:13.589Z,38.59
2022-11-18T16:11:59.636Z,38.57
2022-11-18T16:14:28.182Z,38.37
2022-11-18T16:16:57.362Z,38.17
2022-11-18T16:19:27.172Z,38.19
2022-11-18T16:21:57.970Z,38.11
2022-11-18T16:24:27.842Z,38.09
2022-11-18T16:26:56.619Z,38.23
2022-11-18T16:29:25.618Z,38.16
2022-11-18T16:31:54.986Z,38.00
2022-11-18T16:34:24.697Z,38.01
2022-11-18T16:36:56.730Z,37.90
2022-11-18T16:39:27.361Z,37.59
2022-11-18T16:42:00.708Z,37.73
2022-11-18T16:44:35.307Z,37.67
2022-11-18T16:47:08.958Z,37.61
2022-11-18T16:49:39.244Z,37.28
2022-11-18T16:52:20.261Z,37.42
2022-11-18T16:54:48.727Z,37.33
2022-11-18T16:57:17.362Z,37.11
2022-11-18T16:59:45.854Z,36.92
2022-11-18T17:02:15.257Z,37.68
2022-11-18T17:04:44.727Z,37.70
2022-11-18T17:07:13.729Z,37.74
2022-11-18T17:09:43.944Z,37.12
2022-11-18T17:12:12.453Z,37.32
2022-11-18T17:14:41.252Z,37.38
2022-11-18T17:17:09.676Z,37.63
2022-11-18T17:19:38.206Z,37.54
2022-11-18T17:22:08.324Z,37.38
2022-11-18T17:24:37.043Z,37.68
2022-11-18T17:27:06.956Z,37.45
2022-11-18T17:29:35.681Z,37.60
2022-11-18T17:32:04.223Z,37.38
2022-11-18T17:34:33.058Z,37.30
2022-11-18T17:37:06.574Z,37.48
2022-11-18T17:39:35.480Z,37.38
2022-11-18T17:42:17.833Z,37.61
2022-11-18T17:44:47.679Z,37.52
2022-11-18T17:47:17.685Z,37.43
2022-11-18T17:49:46.229Z,37.41
2022-11-18T17:52:14.711Z,37.46
2022-11-18T17:54:43.256Z,37.36
2022-11-18T17:57:11.778Z,37.22
2022-11-18T17:59:40.342Z,37.41
2022-11-18T18:02:11.699Z,37.49
2022-11-18T18:04:40.300Z,37.34
2022-11-18T18:07:08.919Z,37.48
2022-11-18T18:09:38.094Z,37.49
2022-11-18T18:12:27.563Z,37.16
2022-11-18T18:14:55.126Z,37.45
2022-11-18T18:17:25.221Z,37.41
2022-11-18T18:19:53.752Z,37.23
2022-11-18T18:22:22.481Z,37.19
2022-11-18T18:24:51.151Z,37.23
2022-11-18T18:27:19.903Z,37.19
2022-11-18T18:29:48.983Z,37.22
2022-11-18T18:32:17.986Z,37.30
2022-11-18T18:34:48.040Z,37.01
2022-11-18T18:37:16.648Z,37.12
2022-11-18T18:39:45.532Z,37.05
2022-11-18T18:42:14.171Z,37.03
2022-11-18T18:45:00.129Z,37.20
2022-11-18T18:47:28.880Z,37.14
2022-11-18T18:49:59.224Z,36.42
2022-11-18T18:52:27.861Z,37.07
2022-11-18T18:54:57.033Z,37.88
2022-11-18T18:57:25.811Z,37.62
2022-11-18T18:59:54.528Z,37.59
2022-11-18T19:02:23.295Z,37.43
2022-11-18T19:04:51.759Z,37.90
2022-11-18T19:07:21.857Z,37.57
2022-11-18T19:09:50.385Z,37.25
2022-11-18T19:12:36.517Z,37.22
2022-11-18T19:15:05.879Z,36.93
2022-11-18T19:17:34.539Z,37.52
2022-11-18T19:20:20.681Z,37.59
2022-11-18T19:22:50.669Z,37.70
2022-11-18T19:25:19.390Z,37.82
2022-11-18T19:27:49.116Z,37.97
2022-11-18T19:30:18.286Z,37.87
2022-11-18T19:32:46.810Z,37.91
2022-11-18T19:35:15.749Z,37.56
2022-11-18T19:37:44.373Z,37.35
2022-11-18T19:40:14.845Z,37.29
2022-11-18T19:42:43.479Z,37.88
2022-11-18T19:45:12.459Z,37.52
2022-11-18T19:47:41.067Z,37.02
2022-11-18T19:50:10.928Z,36.85
2022-11-18T19:52:39.381Z,36.96
2022-11-18T19:55:08.676Z,37.07
2022-11-18T19:57:38.515Z,37.40
2022-11-18T20:00:09.011Z,37.63
2022-11-18T20:02:38.917Z,37.67
2022-11-18T20:05:25.933Z,37.59
2022-11-18T20:07:56.522Z,37.77
2022-11-18T20:10:25.155Z,37.97
2022-11-18T20:12:56.299Z,37.33
2022-11-18T20:15:24.810Z,37.48
2022-11-18T20:17:53.643Z,37.16
2022-11-18T20:20:22.726Z,37.25
2022-11-18T20:22:52.350Z,37.81
2022-11-18T20:25:21.099Z,37.47
2022-11-18T20:27:49.611Z,37.42
2022-11-18T20:30:19.709Z,37.22
2022-11-18T20:32:48.312Z,37.56
2022-11-18T20:35:17.220Z,37.42
2022-11-18T20:37:45.991Z,37.34
2022-11-18T20:40:14.589Z,37.66
2022-11-18T20:43:00.768Z,37.45
2022-11-18T20:45:30.653Z,37.46
2022-11-18T20:47:59.366Z,37.30
2022-11-18T20:50:27.786Z,37.58
2022-11-18T20:52:56.613Z,37.33
2022-11-18T20:55:25.111Z,37.45
2022-11-18T20:57:53.642Z,37.37
2022-11-18T21:00:22.304Z,37.40
2022-11-18T21:02:52.254Z,37.45
2022-11-18T21:05:20.696Z,37.40
2022-11-18T21:07:50.697Z,37.38
2022-11-18T21:10:19.714Z,37.33
2022-11-18T21:13:05.886Z,37.36
2022-11-18T21:15:34.437Z,37.25
2022-11-18T21:18:04.814Z,37.34
2022-11-18T21:20:51.071Z,37.29
2022-11-18T21:23:19.581Z,37.25
2022-11-18T21:25:48.144Z,37.32
2022-11-18T21:28:16.895Z,37.38
2022-11-18T21:30:45.435Z,37.27
2022-11-18T21:33:15.308Z,37.38
2022-11-18T21:35:43.793Z,37.24
2022-11-18T21:38:12.325Z,37.10
2022-11-18T21:40:40.785Z,37.28
2022-11-18T21:43:09.413Z,37.29
2022-11-18T21:45:37.877Z,37.10
2022-11-18T21:48:07.672Z,37.18
2022-11-18T21:50:37.678Z,37.32
2022-11-18T21:53:06.252Z,37.41
2022-11-18T21:55:34.766Z,37.66
2022-11-18T21:58:04.287Z,37.64
2022-11-18T22:00:33.164Z,37.86
2022-11-18T22:03:01.733Z,38.11
2022-11-18T22:05:30.327Z,38.20
2022-11-18T22:08:00.138Z,38.22
2022-11-18T22:10:28.783Z,38.48
2022-11-18T22:12:57.651Z,38.69
2022-11-18T22:15:26.178Z,38.54
2022-11-18T22:17:54.633Z,38.70
2022-11-18T22:20:23.135Z,38.96
2022-11-18T22:22:51.631Z,38.97
2022-11-18T22:25:21.484Z,38.84
2022-11-18T22:27:49.965Z,39.26
2022-11-18T22:30:18.642Z,39.07
2022-11-18T22:32:47.155Z,39.02
2022-11-18T22:35:17.180Z,38.96
2022-11-18T22:37:45.728Z,39.15
2022-11-18T22:40:14.653Z,39.13
2022-11-18T22:42:49.303Z,38.93
2022-11-18T22:45:18.281Z,39.24
2022-11-18T22:47:46.974Z,39.05
2022-11-18T22:50:16.553Z,39.26
2022-11-18T22:52:45.475Z,39.21
2022-11-18T22:55:13.986Z,39.37
2022-11-18T22:57:44.231Z,39.40
2022-11-18T23:00:16.086Z,39.46
2022-11-18T23:02:44.556Z,39.65
2022-11-18T23:05:12.989Z,39.38
2022-11-18T23:07:41.566Z,39.62
2022-11-18T23:10:12.333Z,39.61
2022-11-18T23:12:58.391Z,39.53
2022-11-18T23:15:28.266Z,39.24
2022-11-18T23:17:56.715Z,39.32
2022-11-18T23:20:25.257Z,39.61
2022-11-18T23:22:53.803Z,39.46
2022-11-18T23:25:22.304Z,39.26
2022-11-18T23:27:54.201Z,39.30
2022-11-18T23:30:23.421Z,39.53
2022-11-18T23:32:55.934Z,39.25
2022-11-18T23:35:24.827Z,39.51
2022-11-18T23:37:54.615Z,39.38
2022-11-18T23:40:23.101Z,39.33
2022-11-18T23:42:51.593Z,39.29
2022-11-18T23:45:20.218Z,39.33
2022-11-18T23:47:48.667Z,39.38
2022-11-18T23:50:18.643Z,39.46
2022-11-18T23:52:47.198Z,39.30
2022-11-18T23:55:15.709Z,39.51
2022-11-18T23:57:44.193Z,39.44
